Time;durP1;ratioP1;P1;durP2;ratioP2;P2;SDS_P1;SDS_P2;PMS_P1;PMS_P2;Temp;Humidity;BMP_temperature;BMP_pressure;BME280_temperature;BME280_humidity;BME280_pressure;Samples;Min_cycle;Max_cycle;Signal;HPM_P1;HPM_P2
2021/11/07 00:00:41;;;;;;;32.2;17.9;;;;;;;1.14;68.41797;95961.61;;;;
2021/11/07 00:01:54;;;;;;;32.2;17.9;;;;;;;1.14;68.41797;95961.61;;;;
2021/11/07 00:03:03;;;;;;;36.05;17.9;;;;;;;1.25;68.55078;95931.14;;;;
2021/11/07 00:04:15;;;;;;;36.05;17.9;;;;;;;1.25;68.55078;95931.14;;;;
2021/11/07 00:05:34;;;;;;;36.05;17.9;;;;;;;1.25;68.55078;95931.14;;;;
2021/11/07 00:06:37;;;;;;;36.05;17.9;;;;;;;1.25;68.55078;95931.14;;;;
2021/11/07 00:07:45;;;;;;;36.05;17.9;;;;;;;1.25;68.55078;95931.14;;;;
2021/11/07 00:08:53;;;;;;;36.05;17.9;;;;;;;1.25;68.55078;95931.14;;;;
2021/11/07 00:10:01;;;;;;;36.05;17.9;;;;;;;1.25;68.55078;95931.14;;;;
2021/11/07 00:11:05;;;;;;;36.05;17.9;;;;;;;1.25;68.55078;95931.14;;;;
2021/11/07 00:12:13;;;;;;;36.05;17.9;;;;;;;1.25;68.55078;95931.14;;;;
2021/11/07 00:13:18;;;;;;;46.15001;18.95;;;;;;;1.42;69.08301;95932.4;;;;
2021/11/07 00:14:21;;;;;;;46.15001;18.95;;;;;;;1.42;69.08301;95932.4;;;;
2021/11/07 00:15:23;;;;;;;46.15001;18.95;;;;;;;1.42;69.08301;95932.4;;;;
2021/11/07 00:16:26;;;;;;;46.15001;18.95;;;;;;;1.42;69.08301;95932.4;;;;
2021/11/07 00:17:29;;;;;;;46.15001;18.95;;;;;;;1.42;69.08301;95932.4;;;;
2021/11/07 00:18:35;;;;;;;46.15001;18.95;;;;;;;1.42;69.08301;95932.4;;;;
2021/11/07 00:19:39;;;;;;;46.15001;18.95;;;;;;;1.42;69.08301;95932.4;;;;
2021/11/07 00:20:47;;;;;;;46.15001;18.95;;;;;;;1.42;69.08301;95932.4;;;;
2021/11/07 00:21:51;;;;;;;46.15001;18.95;;;;;;;1.42;69.08301;95932.4;;;;
2021/11/07 00:22:57;;;;;;;46.15001;18.95;;;;;;;1.42;69.08301;95932.4;;;;
2021/11/07 00:24:02;;;;;;;46.15001;18.95;;;;;;;1.42;69.08301;95932.4;;;;
2021/11/07 00:25:14;;;;;;;46.15001;18.95;;;;;;;1.42;69.08301;95932.4;;;;
2021/11/07 00:26:20;;;;;;;46.15001;18.95;;;;;;;1.42;69.08301;95932.4;;;;
2021/11/07 00:27:25;;;;;;;46.15001;18.95;;;;;;;1.42;69.08301;95932.4;;;;
2021/11/07 00:28:32;;;;;;;46.15001;18.95;;;;;;;1.42;69.08301;95932.4;;;;
2021/11/07 00:29:35;;;;;;;46.15001;18.95;;;;;;;1.42;69.08301;95932.4;;;;
2021/11/07 00:30:44;;;;;;;46.15001;18.95;;;;;;;1.42;69.08301;95932.4;;;;
2021/11/07 00:31:50;;;;;;;46.15001;18.95;;;;;;;1.42;69.08301;95932.4;;;;
2021/11/07 00:33:03;;;;;;;46.15001;18.95;;;;;;;1.42;69.08301;95932.4;;;;
2021/11/07 00:39:20;;;;;;;35.75;17.3;;;;;;;1.63;69.44141;95954.55;;;;
2021/11/07 00:40:27;;;;;;;35.75;17.3;;;;;;;1.63;69.44141;95954.55;;;;
2021/11/07 00:41:34;;;;;;;35.75;17.3;;;;;;;1.63;69.44141;95954.55;;;;
2021/11/07 00:42:43;;;;;;;35.75;17.3;;;;;;;1.63;69.44141;95954.55;;;;
2021/11/07 00:43:48;;;;;;;35.75;17.3;;;;;;;1.63;69.44141;95954.55;;;;
2021/11/07 00:44:55;;;;;;;35.75;17.3;;;;;;;1.63;69.44141;95954.55;;;;
2021/11/07 00:46:06;;;;;;;31.1;17.95;;;;;;;1.78;69.63379;95952.39;;;;
2021/11/07 00:47:15;;;;;;;31.1;17.95;;;;;;;1.78;69.63379;95952.39;;;;
2021/11/07 00:48:21;;;;;;;31.1;17.95;;;;;;;1.78;69.63379;95952.39;;;;
2021/11/07 00:49:26;;;;;;;31.1;17.95;;;;;;;1.78;69.63379;95952.39;;;;
2021/11/07 00:50:31;;;;;;;31.1;17.95;;;;;;;1.78;69.63379;95952.39;;;;
2021/11/07 00:51:38;;;;;;;31.1;17.95;;;;;;;1.78;69.63379;95952.39;;;;
2021/11/07 00:52:51;;;;;;;31.1;17.95;;;;;;;1.78;69.63379;95952.39;;;;
2021/11/07 00:54:03;;;;;;;31.1;17.95;;;;;;;1.78;69.63379;95952.39;;;;
2021/11/07 00:55:07;;;;;;;31.1;17.95;;;;;;;1.78;69.63379;95952.39;;;;
2021/11/07 00:56:17;;;;;;;55.75;19.65;;;;;;;1.94;69.64844;95968.47;;;;
2021/11/07 00:57:21;;;;;;;55.75;19.65;;;;;;;1.94;69.64844;95968.47;;;;
2021/11/07 00:58:32;;;;;;;55.75;19.65;;;;;;;1.94;69.64844;95968.47;;;;
2021/11/07 00:59:37;;;;;;;55.75;19.65;;;;;;;1.94;69.64844;95968.47;;;;
2021/11/07 01:00:40;;;;;;;55.75;19.65;;;;;;;1.94;69.64844;95968.47;;;;
2021/11/07 01:01:41;;;;;;;55.75;19.65;;;;;;;1.94;69.64844;95968.47;;;;
2021/11/07 01:02:47;;;;;;;55.75;19.65;;;;;;;1.94;69.64844;95968.47;;;;
2021/11/07 01:03:48;;;;;;;55.75;19.65;;;;;;;1.94;69.64844;95968.47;;;;
2021/11/07 01:04:49;;;;;;;55.75;19.65;;;;;;;1.94;69.64844;95968.47;;;;
2021/11/07 01:05:50;;;;;;;55.75;19.65;;;;;;;1.94;69.64844;95968.47;;;;
2021/11/07 01:06:50;;;;;;;48.8;19.7;;;;;;;2.09;69.7666;95962.78;;;;
2021/11/07 01:07:51;;;;;;;48.8;19.7;;;;;;;2.09;69.7666;95962.78;;;;
2021/11/07 01:08:52;;;;;;;48.8;19.7;;;;;;;2.09;69.7666;95962.78;;;;
2021/11/07 01:09:53;;;;;;;48.8;19.7;;;;;;;2.09;69.7666;95962.78;;;;
2021/11/07 01:10:57;;;;;;;48.8;19.7;;;;;;;2.09;69.7666;95962.78;;;;
2021/11/07 01:11:58;;;;;;;48.8;19.7;;;;;;;2.09;69.7666;95962.78;;;;
2021/11/07 01:12:59;;;;;;;48.8;19.7;;;;;;;2.09;69.7666;95962.78;;;;
2021/11/07 01:14:00;;;;;;;48.8;19.7;;;;;;;2.09;69.7666;95962.78;;;;
2021/11/07 01:15:00;;;;;;;48.8;19.7;;;;;;;2.09;69.7666;95962.78;;;;
2021/11/07 01:16:02;;;;;;;48.8;19.7;;;;;;;2.09;69.7666;95962.78;;;;
2021/11/07 01:17:04;;;;;;;48.8;19.7;;;;;;;2.09;69.7666;95962.78;;;;
2021/11/07 01:18:05;;;;;;;48.8;19.7;;;;;;;2.09;69.7666;95962.78;;;;
2021/11/07 01:19:06;;;;;;;48.8;19.7;;;;;;;2.09;69.7666;95962.78;;;;
2021/11/07 01:20:06;;;;;;;48.8;19.7;;;;;;;2.09;69.7666;95962.78;;;;
2021/11/07 01:21:12;;;;;;;48.8;19.7;;;;;;;2.09;69.7666;95962.78;;;;
2021/11/07 01:22:20;;;;;;;48.8;19.7;;;;;;;2.09;69.7666;95962.78;;;;
2021/11/07 01:23:26;;;;;;;48.8;19.7;;;;;;;2.09;69.7666;95962.78;;;;
2021/11/07 01:24:31;;;;;;;48.8;19.7;;;;;;;2.09;69.7666;95962.78;;;;
2021/11/07 01:25:35;;;;;;;48.8;19.7;;;;;;;2.09;69.7666;95962.78;;;;
2021/11/07 01:26:40;;;;;;;48.8;19.7;;;;;;;2.09;69.7666;95962.78;;;;
2021/11/07 01:27:42;;;;;;;51.90001;20.45;;;;;;;2.36;70.06445;95965.51;;;;
2021/11/07 01:28:47;;;;;;;51.90001;20.45;;;;;;;2.36;70.06445;95965.51;;;;
2021/11/07 01:29:51;;;;;;;51.90001;20.45;;;;;;;2.36;70.06445;95965.51;;;;
2021/11/07 01:30:53;;;;;;;51.90001;20.45;;;;;;;2.36;70.06445;95965.51;;;;
2021/11/07 01:31:56;;;;;;;51.90001;20.45;;;;;;;2.36;70.06445;95965.51;;;;
2021/11/07 01:33:01;;;;;;;51.90001;20.45;;;;;;;2.36;70.06445;95965.51;;;;
2021/11/07 01:34:02;;;;;;;51.90001;20.45;;;;;;;2.36;70.06445;95965.51;;;;
2021/11/07 01:35:07;;;;;;;51.90001;20.45;;;;;;;2.36;70.06445;95965.51;;;;
2021/11/07 01:36:20;;;;;;;51.90001;20.45;;;;;;;2.36;70.06445;95965.51;;;;
2021/11/07 01:37:23;;;;;;;51.90001;20.45;;;;;;;2.36;70.06445;95965.51;;;;
2021/11/07 01:38:26;;;;;;;70.75;19.6;;;;;;;2.47;70.27148;95934.52;;;;
2021/11/07 01:39:37;;;;;;;70.75;19.6;;;;;;;2.47;70.27148;95934.52;;;;
2021/11/07 01:40:39;;;;;;;70.75;19.6;;;;;;;2.47;70.27148;95934.52;;;;
2021/11/07 01:41:57;;;;;;;70.75;19.6;;;;;;;2.47;70.27148;95934.52;;;;
2021/11/07 01:42:58;;;;;;;70.75;19.6;;;;;;;2.47;70.27148;95934.52;;;;
2021/11/07 01:44:00;;;;;;;70.75;19.6;;;;;;;2.47;70.27148;95934.52;;;;
2021/11/07 01:45:03;;;;;;;70.75;19.6;;;;;;;2.47;70.27148;95934.52;;;;
2021/11/07 01:46:11;;;;;;;70.75;19.6;;;;;;;2.47;70.27148;95934.52;;;;
2021/11/07 01:47:14;;;;;;;70.75;19.6;;;;;;;2.47;70.27148;95934.52;;;;
2021/11/07 01:48:17;;;;;;;70.75;19.6;;;;;;;2.47;70.27148;95934.52;;;;
2021/11/07 01:49:21;;;;;;;32.4;17.4;;;;;;;2.54;70.55762;95907.51;;;;
2021/11/07 01:50:22;;;;;;;32.4;17.4;;;;;;;2.54;70.55762;95907.51;;;;
2021/11/07 01:51:24;;;;;;;32.4;17.4;;;;;;;2.54;70.55762;95907.51;;;;
2021/11/07 01:52:25;;;;;;;32.4;17.4;;;;;;;2.54;70.55762;95907.51;;;;
2021/11/07 01:53:28;;;;;;;32.4;17.4;;;;;;;2.54;70.55762;95907.51;;;;
2021/11/07 01:54:33;;;;;;;32.4;17.4;;;;;;;2.54;70.55762;95907.51;;;;
2021/11/07 01:55:36;;;;;;;32.4;17.4;;;;;;;2.54;70.55762;95907.51;;;;
2021/11/07 01:56:36;;;;;;;32.4;17.4;;;;;;;2.54;70.55762;95907.51;;;;
2021/11/07 01:57:37;;;;;;;32.4;17.4;;;;;;;2.54;70.55762;95907.51;;;;
2021/11/07 01:58:38;;;;;;;32.4;17.4;;;;;;;2.54;70.55762;95907.51;;;;
2021/11/07 01:59:41;;;;;;;29.25;16.85;;;;;;;2.54;70.86035;95919.08;;;;
2021/11/07 02:00:43;;;;;;;29.25;16.85;;;;;;;2.54;70.86035;95919.08;;;;
2021/11/07 02:01:45;;;;;;;29.25;16.85;;;;;;;2.54;70.86035;95919.08;;;;
2021/11/07 02:02:51;;;;;;;29.25;16.85;;;;;;;2.54;70.86035;95919.08;;;;
2021/11/07 02:03:52;;;;;;;29.25;16.85;;;;;;;2.54;70.86035;95919.08;;;;
2021/11/07 02:04:53;;;;;;;29.25;16.85;;;;;;;2.54;70.86035;95919.08;;;;
2021/11/07 02:05:53;;;;;;;29.25;16.85;;;;;;;2.54;70.86035;95919.08;;;;
2021/11/07 02:06:54;;;;;;;29.25;16.85;;;;;;;2.54;70.86035;95919.08;;;;
2021/11/07 02:07:54;;;;;;;29.25;16.85;;;;;;;2.54;70.86035;95919.08;;;;
2021/11/07 02:08:55;;;;;;;29.25;16.85;;;;;;;2.54;70.86035;95919.08;;;;
2021/11/07 02:09:56;;;;;;;29.25;16.85;;;;;;;2.54;70.86035;95919.08;;;;
2021/11/07 02:10:56;;;;;;;29.25;16.85;;;;;;;2.54;70.86035;95919.08;;;;
2021/11/07 02:11:58;;;;;;;29.25;16.85;;;;;;;2.54;70.86035;95919.08;;;;
2021/11/07 02:12:58;;;;;;;29.25;16.85;;;;;;;2.54;70.86035;95919.08;;;;
2021/11/07 02:13:59;;;;;;;29.25;16.85;;;;;;;2.54;70.86035;95919.08;;;;
2021/11/07 02:15:00;;;;;;;29.25;16.85;;;;;;;2.54;70.86035;95919.08;;;;
2021/11/07 02:16:02;;;;;;;29.25;16.85;;;;;;;2.54;70.86035;95919.08;;;;
2021/11/07 02:17:04;;;;;;;29.25;16.85;;;;;;;2.54;70.86035;95919.08;;;;
2021/11/07 02:18:06;;;;;;;29.25;16.85;;;;;;;2.54;70.86035;95919.08;;;;
2021/11/07 02:19:07;;;;;;;29.25;16.85;;;;;;;2.54;70.86035;95919.08;;;;
2021/11/07 02:20:09;;;;;;;29.25;16.85;;;;;;;2.54;70.86035;95919.08;;;;
2021/11/07 02:21:13;;;;;;;28.3;15.9;;;;;;;2.46;71.23535;95900.05;;;;
2021/11/07 02:22:14;;;;;;;28.3;15.9;;;;;;;2.46;71.23535;95900.05;;;;
2021/11/07 02:23:15;;;;;;;28.3;15.9;;;;;;;2.46;71.23535;95900.05;;;;
2021/11/07 02:24:19;;;;;;;28.3;15.9;;;;;;;2.46;71.23535;95900.05;;;;
2021/11/07 02:25:19;;;;;;;28.3;15.9;;;;;;;2.46;71.23535;95900.05;;;;
2021/11/07 02:26:20;;;;;;;28.3;15.9;;;;;;;2.46;71.23535;95900.05;;;;
2021/11/07 02:27:22;;;;;;;28.3;15.9;;;;;;;2.46;71.23535;95900.05;;;;
2021/11/07 02:28:22;;;;;;;28.3;15.9;;;;;;;2.46;71.23535;95900.05;;;;
2021/11/07 02:29:28;;;;;;;28.3;15.9;;;;;;;2.46;71.23535;95900.05;;;;
2021/11/07 02:30:29;;;;;;;28.3;15.9;;;;;;;2.46;71.23535;95900.05;;;;
2021/11/07 02:31:32;;;;;;;28.3;15.9;;;;;;;2.46;71.23535;95900.05;;;;
2021/11/07 02:32:33;;;;;;;22.4;12.45;;;;;;;2.34;71.58398;95891.16;;;;
2021/11/07 02:33:33;;;;;;;22.4;12.45;;;;;;;2.34;71.58398;95891.16;;;;
2021/11/07 02:34:35;;;;;;;22.4;12.45;;;;;;;2.34;71.58398;95891.16;;;;
2021/11/07 02:35:35;;;;;;;22.4;12.45;;;;;;;2.34;71.58398;95891.16;;;;
2021/11/07 02:36:36;;;;;;;22.4;12.45;;;;;;;2.34;71.58398;95891.16;;;;
2021/11/07 02:37:37;;;;;;;22.4;12.45;;;;;;;2.34;71.58398;95891.16;;;;
2021/11/07 02:38:38;;;;;;;22.4;12.45;;;;;;;2.34;71.58398;95891.16;;;;
2021/11/07 02:39:41;;;;;;;22.4;12.45;;;;;;;2.34;71.58398;95891.16;;;;
2021/11/07 02:40:41;;;;;;;22.4;12.45;;;;;;;2.34;71.58398;95891.16;;;;
2021/11/07 02:41:42;;;;;;;22.4;12.45;;;;;;;2.34;71.58398;95891.16;;;;
2021/11/07 02:42:44;;;;;;;21.35;13.5;;;;;;;2.29;71.91309;95848.22;;;;
2021/11/07 02:43:46;;;;;;;21.35;13.5;;;;;;;2.29;71.91309;95848.22;;;;
2021/11/07 02:44:49;;;;;;;21.35;13.5;;;;;;;2.29;71.91309;95848.22;;;;
2021/11/07 02:45:50;;;;;;;21.35;13.5;;;;;;;2.29;71.91309;95848.22;;;;
2021/11/07 02:46:51;;;;;;;21.35;13.5;;;;;;;2.29;71.91309;95848.22;;;;
2021/11/07 02:47:51;;;;;;;21.35;13.5;;;;;;;2.29;71.91309;95848.22;;;;
2021/11/07 02:48:52;;;;;;;21.35;13.5;;;;;;;2.29;71.91309;95848.22;;;;
2021/11/07 02:49:56;;;;;;;21.35;13.5;;;;;;;2.29;71.91309;95848.22;;;;
2021/11/07 02:50:56;;;;;;;21.35;13.5;;;;;;;2.29;71.91309;95848.22;;;;
2021/11/07 02:51:57;;;;;;;21.35;13.5;;;;;;;2.29;71.91309;95848.22;;;;
2021/11/07 02:53:00;;;;;;;21.35;13.5;;;;;;;2.29;71.91309;95848.22;;;;
2021/11/07 02:54:03;;;;;;;19.75;12;;;;;;;2.26;72.07422;95856.14;;;;
2021/11/07 02:55:06;;;;;;;19.75;12;;;;;;;2.26;72.07422;95856.14;;;;
2021/11/07 02:56:08;;;;;;;19.75;12;;;;;;;2.26;72.07422;95856.14;;;;
2021/11/07 02:57:08;;;;;;;19.75;12;;;;;;;2.26;72.07422;95856.14;;;;
2021/11/07 02:58:12;;;;;;;19.75;12;;;;;;;2.26;72.07422;95856.14;;;;
2021/11/07 02:59:12;;;;;;;19.75;12;;;;;;;2.26;72.07422;95856.14;;;;
2021/11/07 03:00:22;;;;;;;19.75;12;;;;;;;2.26;72.07422;95856.14;;;;
2021/11/07 03:01:23;;;;;;;19.75;12;;;;;;;2.26;72.07422;95856.14;;;;
2021/11/07 03:02:26;;;;;;;19.75;12;;;;;;;2.26;72.07422;95856.14;;;;
2021/11/07 03:03:28;;;;;;;19.75;12;;;;;;;2.26;72.07422;95856.14;;;;
2021/11/07 03:04:29;;;;;;;17.4;10.85;;;;;;;2.17;72.24902;95855.77;;;;
2021/11/07 03:05:31;;;;;;;17.4;10.85;;;;;;;2.17;72.24902;95855.77;;;;
2021/11/07 03:06:32;;;;;;;17.4;10.85;;;;;;;2.17;72.24902;95855.77;;;;
2021/11/07 03:07:34;;;;;;;17.4;10.85;;;;;;;2.17;72.24902;95855.77;;;;
2021/11/07 03:08:34;;;;;;;17.4;10.85;;;;;;;2.17;72.24902;95855.77;;;;
2021/11/07 03:09:38;;;;;;;17.4;10.85;;;;;;;2.17;72.24902;95855.77;;;;
2021/11/07 03:10:40;;;;;;;17.4;10.85;;;;;;;2.17;72.24902;95855.77;;;;
2021/11/07 03:11:42;;;;;;;17.4;10.85;;;;;;;2.17;72.24902;95855.77;;;;
2021/11/07 03:12:43;;;;;;;17.4;10.85;;;;;;;2.17;72.24902;95855.77;;;;
2021/11/07 03:13:45;;;;;;;17.4;10.85;;;;;;;2.17;72.24902;95855.77;;;;
2021/11/07 03:14:47;;;;;;;17.4;10.85;;;;;;;2.17;72.24902;95855.77;;;;
2021/11/07 03:15:51;;;;;;;17.4;10.85;;;;;;;2.17;72.24902;95855.77;;;;
2021/11/07 03:16:51;;;;;;;17.4;10.85;;;;;;;2.17;72.24902;95855.77;;;;
2021/11/07 03:17:52;;;;;;;17.4;10.85;;;;;;;2.17;72.24902;95855.77;;;;
2021/11/07 03:18:53;;;;;;;17.4;10.85;;;;;;;2.17;72.24902;95855.77;;;;
2021/11/07 03:19:54;;;;;;;17.4;10.85;;;;;;;2.17;72.24902;95855.77;;;;
2021/11/07 03:20:54;;;;;;;17.4;10.85;;;;;;;2.17;72.24902;95855.77;;;;
2021/11/07 03:21:55;;;;;;;17.4;10.85;;;;;;;2.17;72.24902;95855.77;;;;
2021/11/07 03:22:57;;;;;;;17.4;10.85;;;;;;;2.17;72.24902;95855.77;;;;
2021/11/07 03:23:58;;;;;;;17.4;10.85;;;;;;;2.17;72.24902;95855.77;;;;
2021/11/07 03:24:59;;;;;;;17.4;10.85;;;;;;;2.17;72.24902;95855.77;;;;
2021/11/07 03:26:05;;;;;;;18.05;11.4;;;;;;;2.09;72.22461;95790.52;;;;
2021/11/07 03:27:12;;;;;;;18.05;11.4;;;;;;;2.09;72.22461;95790.52;;;;
2021/11/07 03:28:14;;;;;;;18.05;11.4;;;;;;;2.09;72.22461;95790.52;;;;
2021/11/07 03:29:15;;;;;;;18.05;11.4;;;;;;;2.09;72.22461;95790.52;;;;
2021/11/07 03:30:23;;;;;;;18.05;11.4;;;;;;;2.09;72.22461;95790.52;;;;
2021/11/07 03:31:35;;;;;;;18.05;11.4;;;;;;;2.09;72.22461;95790.52;;;;
2021/11/07 03:32:40;;;;;;;18.05;11.4;;;;;;;2.09;72.22461;95790.52;;;;
2021/11/07 03:33:43;;;;;;;18.05;11.4;;;;;;;2.09;72.22461;95790.52;;;;
2021/11/07 03:34:45;;;;;;;18.05;11.4;;;;;;;2.09;72.22461;95790.52;;;;
2021/11/07 03:35:47;;;;;;;18.05;11.4;;;;;;;2.09;72.22461;95790.52;;;;
2021/11/07 03:36:50;;;;;;;16.6;10.45;;;;;;;1.99;72.26074;95783.73;;;;
2021/11/07 03:37:55;;;;;;;16.6;10.45;;;;;;;1.99;72.26074;95783.73;;;;
2021/11/07 03:38:56;;;;;;;16.6;10.45;;;;;;;1.99;72.26074;95783.73;;;;
2021/11/07 03:39:57;;;;;;;16.6;10.45;;;;;;;1.99;72.26074;95783.73;;;;
2021/11/07 03:41:00;;;;;;;16.6;10.45;;;;;;;1.99;72.26074;95783.73;;;;
2021/11/07 03:42:02;;;;;;;16.6;10.45;;;;;;;1.99;72.26074;95783.73;;;;
2021/11/07 03:43:06;;;;;;;16.6;10.45;;;;;;;1.99;72.26074;95783.73;;;;
2021/11/07 03:44:07;;;;;;;16.6;10.45;;;;;;;1.99;72.26074;95783.73;;;;
2021/11/07 03:45:08;;;;;;;16.6;10.45;;;;;;;1.99;72.26074;95783.73;;;;
2021/11/07 03:46:09;;;;;;;16.6;10.45;;;;;;;1.99;72.26074;95783.73;;;;
2021/11/07 03:47:12;;;;;;;15.65;10.15;;;;;;;1.67;72.33301;95789.98;;;;
2021/11/07 03:48:13;;;;;;;15.65;10.15;;;;;;;1.67;72.33301;95789.98;;;;
2021/11/07 03:49:14;;;;;;;15.65;10.15;;;;;;;1.67;72.33301;95789.98;;;;
2021/11/07 03:50:15;;;;;;;15.65;10.15;;;;;;;1.67;72.33301;95789.98;;;;
2021/11/07 03:51:16;;;;;;;15.65;10.15;;;;;;;1.67;72.33301;95789.98;;;;
2021/11/07 03:52:17;;;;;;;15.65;10.15;;;;;;;1.67;72.33301;95789.98;;;;
2021/11/07 03:53:18;;;;;;;15.65;10.15;;;;;;;1.67;72.33301;95789.98;;;;
2021/11/07 03:54:19;;;;;;;15.65;10.15;;;;;;;1.67;72.33301;95789.98;;;;
2021/11/07 03:55:20;;;;;;;15.65;10.15;;;;;;;1.67;72.33301;95789.98;;;;
2021/11/07 03:56:21;;;;;;;15.65;10.15;;;;;;;1.67;72.33301;95789.98;;;;
2021/11/07 03:57:22;;;;;;;15.65;10.15;;;;;;;1.67;72.33301;95789.98;;;;
2021/11/07 03:58:23;;;;;;;15.65;10.15;;;;;;;1.67;72.33301;95789.98;;;;
2021/11/07 03:59:25;;;;;;;15.65;10.15;;;;;;;1.67;72.33301;95789.98;;;;
2021/11/07 04:00:26;;;;;;;15.65;10.15;;;;;;;1.67;72.33301;95789.98;;;;
2021/11/07 04:01:27;;;;;;;15.65;10.15;;;;;;;1.67;72.33301;95789.98;;;;
2021/11/07 04:02:27;;;;;;;15.65;10.15;;;;;;;1.67;72.33301;95789.98;;;;
2021/11/07 04:03:28;;;;;;;15.65;10.15;;;;;;;1.67;72.33301;95789.98;;;;
2021/11/07 04:04:28;;;;;;;15.65;10.15;;;;;;;1.67;72.33301;95789.98;;;;
2021/11/07 04:05:29;;;;;;;15.65;10.15;;;;;;;1.67;72.33301;95789.98;;;;
2021/11/07 04:06:30;;;;;;;15.65;10.15;;;;;;;1.67;72.33301;95789.98;;;;
2021/11/07 04:07:31;;;;;;;15.65;10.15;;;;;;;1.67;72.33301;95789.98;;;;
2021/11/07 04:08:31;;;;;;;21.15;12.65;;;;;;;1.14;73.02734;95775.05;;;;
2021/11/07 04:09:32;;;;;;;21.15;12.65;;;;;;;1.14;73.02734;95775.05;;;;
2021/11/07 04:10:32;;;;;;;21.15;12.65;;;;;;;1.14;73.02734;95775.05;;;;
2021/11/07 04:11:34;;;;;;;21.15;12.65;;;;;;;1.14;73.02734;95775.05;;;;
2021/11/07 04:12:35;;;;;;;21.15;12.65;;;;;;;1.14;73.02734;95775.05;;;;
2021/11/07 04:13:38;;;;;;;21.15;12.65;;;;;;;1.14;73.02734;95775.05;;;;
2021/11/07 04:14:39;;;;;;;21.15;12.65;;;;;;;1.14;73.02734;95775.05;;;;
2021/11/07 04:15:40;;;;;;;21.15;12.65;;;;;;;1.14;73.02734;95775.05;;;;
2021/11/07 04:16:40;;;;;;;21.15;12.65;;;;;;;1.14;73.02734;95775.05;;;;
2021/11/07 04:17:42;;;;;;;21.15;12.65;;;;;;;1.14;73.02734;95775.05;;;;
2021/11/07 04:18:44;;;;;;;22.3;13.3;;;;;;;1.09;73.13477;95760.94;;;;
2021/11/07 04:19:45;;;;;;;22.3;13.3;;;;;;;1.09;73.13477;95760.94;;;;
2021/11/07 04:20:46;;;;;;;22.3;13.3;;;;;;;1.09;73.13477;95760.94;;;;
2021/11/07 04:21:49;;;;;;;22.3;13.3;;;;;;;1.09;73.13477;95760.94;;;;
2021/11/07 04:22:49;;;;;;;22.3;13.3;;;;;;;1.09;73.13477;95760.94;;;;
2021/11/07 04:23:50;;;;;;;22.3;13.3;;;;;;;1.09;73.13477;95760.94;;;;
2021/11/07 04:24:51;;;;;;;22.3;13.3;;;;;;;1.09;73.13477;95760.94;;;;
2021/11/07 04:25:52;;;;;;;22.3;13.3;;;;;;;1.09;73.13477;95760.94;;;;
2021/11/07 04:26:52;;;;;;;22.3;13.3;;;;;;;1.09;73.13477;95760.94;;;;
2021/11/07 04:27:53;;;;;;;22.3;13.3;;;;;;;1.09;73.13477;95760.94;;;;
2021/11/07 04:28:54;;;;;;;22.3;13.3;;;;;;;1.09;73.13477;95760.94;;;;
2021/11/07 04:29:54;;;;;;;20.15;12.75;;;;;;;1.08;73.07031;95730.92;;;;
2021/11/07 04:30:55;;;;;;;20.15;12.75;;;;;;;1.08;73.07031;95730.92;;;;
2021/11/07 04:31:56;;;;;;;20.15;12.75;;;;;;;1.08;73.07031;95730.92;;;;
2021/11/07 04:32:57;;;;;;;20.15;12.75;;;;;;;1.08;73.07031;95730.92;;;;
2021/11/07 04:33:58;;;;;;;20.15;12.75;;;;;;;1.08;73.07031;95730.92;;;;
2021/11/07 04:34:58;;;;;;;20.15;12.75;;;;;;;1.08;73.07031;95730.92;;;;
2021/11/07 04:35:59;;;;;;;20.15;12.75;;;;;;;1.08;73.07031;95730.92;;;;
2021/11/07 04:37:02;;;;;;;20.15;12.75;;;;;;;1.08;73.07031;95730.92;;;;
2021/11/07 04:38:04;;;;;;;20.15;12.75;;;;;;;1.08;73.07031;95730.92;;;;
2021/11/07 04:39:04;;;;;;;20.15;12.75;;;;;;;1.08;73.07031;95730.92;;;;
2021/11/07 04:40:05;;;;;;;18.35;11.7;;;;;;;0.87;73.02441;95741.24;;;;
2021/11/07 04:41:15;;;;;;;18.35;11.7;;;;;;;0.87;73.02441;95741.24;;;;
2021/11/07 04:42:16;;;;;;;18.35;11.7;;;;;;;0.87;73.02441;95741.24;;;;
2021/11/07 04:43:18;;;;;;;18.35;11.7;;;;;;;0.87;73.02441;95741.24;;;;
2021/11/07 04:44:18;;;;;;;18.35;11.7;;;;;;;0.87;73.02441;95741.24;;;;
2021/11/07 04:45:19;;;;;;;18.35;11.7;;;;;;;0.87;73.02441;95741.24;;;;
2021/11/07 04:46:20;;;;;;;18.35;11.7;;;;;;;0.87;73.02441;95741.24;;;;
2021/11/07 04:47:21;;;;;;;18.35;11.7;;;;;;;0.87;73.02441;95741.24;;;;
2021/11/07 04:48:22;;;;;;;18.35;11.7;;;;;;;0.87;73.02441;95741.24;;;;
2021/11/07 04:49:22;;;;;;;18.35;11.7;;;;;;;0.87;73.02441;95741.24;;;;
2021/11/07 04:50:23;;;;;;;18.35;11.7;;;;;;;0.87;73.02441;95741.24;;;;
2021/11/07 04:51:24;;;;;;;18.35;11.7;;;;;;;0.87;73.02441;95741.24;;;;
2021/11/07 04:52:25;;;;;;;18.35;11.7;;;;;;;0.87;73.02441;95741.24;;;;
2021/11/07 04:53:25;;;;;;;18.35;11.7;;;;;;;0.87;73.02441;95741.24;;;;
2021/11/07 04:54:27;;;;;;;18.35;11.7;;;;;;;0.87;73.02441;95741.24;;;;
2021/11/07 04:55:28;;;;;;;18.35;11.7;;;;;;;0.87;73.02441;95741.24;;;;
2021/11/07 04:56:28;;;;;;;18.35;11.7;;;;;;;0.87;73.02441;95741.24;;;;
2021/11/07 04:57:30;;;;;;;18.35;11.7;;;;;;;0.87;73.02441;95741.24;;;;
2021/11/07 04:58:30;;;;;;;18.35;11.7;;;;;;;0.87;73.02441;95741.24;;;;
2021/11/07 04:59:31;;;;;;;18.35;11.7;;;;;;;0.87;73.02441;95741.24;;;;
2021/11/07 05:00:32;;;;;;;18.35;11.7;;;;;;;0.87;73.02441;95741.24;;;;
2021/11/07 05:01:35;;;;;;;16.35;10.55;;;;;;;0.44;73.36816;95746.83;;;;
2021/11/07 05:02:37;;;;;;;16.35;10.55;;;;;;;0.44;73.36816;95746.83;;;;
2021/11/07 05:03:38;;;;;;;16.35;10.55;;;;;;;0.44;73.36816;95746.83;;;;
2021/11/07 05:04:39;;;;;;;16.35;10.55;;;;;;;0.44;73.36816;95746.83;;;;
2021/11/07 05:05:40;;;;;;;16.35;10.55;;;;;;;0.44;73.36816;95746.83;;;;
2021/11/07 05:06:41;;;;;;;16.35;10.55;;;;;;;0.44;73.36816;95746.83;;;;
2021/11/07 05:07:42;;;;;;;16.35;10.55;;;;;;;0.44;73.36816;95746.83;;;;
2021/11/07 05:08:43;;;;;;;16.35;10.55;;;;;;;0.44;73.36816;95746.83;;;;
2021/11/07 05:09:44;;;;;;;16.35;10.55;;;;;;;0.44;73.36816;95746.83;;;;
2021/11/07 05:10:44;;;;;;;16.35;10.55;;;;;;;0.44;73.36816;95746.83;;;;
2021/11/07 05:11:45;;;;;;;16.35;10.55;;;;;;;0.44;73.36816;95746.83;;;;
2021/11/07 05:12:46;;;;;;;18.15;11.25;;;;;;;0.1;73.49805;95764.65;;;;
2021/11/07 05:13:46;;;;;;;18.15;11.25;;;;;;;0.1;73.49805;95764.65;;;;
2021/11/07 05:14:47;;;;;;;18.15;11.25;;;;;;;0.1;73.49805;95764.65;;;;
2021/11/07 05:15:48;;;;;;;18.15;11.25;;;;;;;0.1;73.49805;95764.65;;;;
2021/11/07 05:16:48;;;;;;;18.15;11.25;;;;;;;0.1;73.49805;95764.65;;;;
2021/11/07 05:17:49;;;;;;;18.15;11.25;;;;;;;0.1;73.49805;95764.65;;;;
2021/11/07 05:18:50;;;;;;;18.15;11.25;;;;;;;0.1;73.49805;95764.65;;;;
2021/11/07 05:19:50;;;;;;;18.15;11.25;;;;;;;0.1;73.49805;95764.65;;;;
2021/11/07 05:20:52;;;;;;;18.15;11.25;;;;;;;0.1;73.49805;95764.65;;;;
2021/11/07 05:21:52;;;;;;;18.15;11.25;;;;;;;0.1;73.49805;95764.65;;;;
2021/11/07 05:22:53;;;;;;;20.4;12.2;;;;;;;-0.18;73.76367;95777.71;;;;
2021/11/07 05:23:54;;;;;;;20.4;12.2;;;;;;;-0.18;73.76367;95777.71;;;;
2021/11/07 05:24:55;;;;;;;20.4;12.2;;;;;;;-0.18;73.76367;95777.71;;;;
2021/11/07 05:25:56;;;;;;;20.4;12.2;;;;;;;-0.18;73.76367;95777.71;;;;
2021/11/07 05:26:57;;;;;;;20.4;12.2;;;;;;;-0.18;73.76367;95777.71;;;;
2021/11/07 05:27:58;;;;;;;20.4;12.2;;;;;;;-0.18;73.76367;95777.71;;;;
2021/11/07 05:28:59;;;;;;;20.4;12.2;;;;;;;-0.18;73.76367;95777.71;;;;
2021/11/07 05:30:00;;;;;;;20.4;12.2;;;;;;;-0.18;73.76367;95777.71;;;;
2021/11/07 05:31:01;;;;;;;20.4;12.2;;;;;;;-0.18;73.76367;95777.71;;;;
2021/11/07 05:32:02;;;;;;;20.4;12.2;;;;;;;-0.18;73.76367;95777.71;;;;
2021/11/07 05:33:03;;;;;;;20.4;12.2;;;;;;;-0.18;73.76367;95777.71;;;;
2021/11/07 05:34:04;;;;;;;23.6;13.3;;;;;;;-0.27;73.81152;95784.38;;;;
2021/11/07 05:35:05;;;;;;;23.6;13.3;;;;;;;-0.27;73.81152;95784.38;;;;
2021/11/07 05:36:07;;;;;;;23.6;13.3;;;;;;;-0.27;73.81152;95784.38;;;;
2021/11/07 05:37:08;;;;;;;23.6;13.3;;;;;;;-0.27;73.81152;95784.38;;;;
2021/11/07 05:38:09;;;;;;;23.6;13.3;;;;;;;-0.27;73.81152;95784.38;;;;
2021/11/07 05:39:09;;;;;;;23.6;13.3;;;;;;;-0.27;73.81152;95784.38;;;;
2021/11/07 05:40:11;;;;;;;23.6;13.3;;;;;;;-0.27;73.81152;95784.38;;;;
2021/11/07 05:41:12;;;;;;;23.6;13.3;;;;;;;-0.27;73.81152;95784.38;;;;
2021/11/07 05:42:12;;;;;;;23.6;13.3;;;;;;;-0.27;73.81152;95784.38;;;;
2021/11/07 05:43:13;;;;;;;23.6;13.3;;;;;;;-0.27;73.81152;95784.38;;;;
2021/11/07 05:44:14;;;;;;;23.6;13.25;;;;;;;-0.32;73.75;95756.67;;;;
2021/11/07 05:45:15;;;;;;;23.6;13.25;;;;;;;-0.32;73.75;95756.67;;;;
2021/11/07 05:46:16;;;;;;;23.6;13.25;;;;;;;-0.32;73.75;95756.67;;;;
2021/11/07 05:47:17;;;;;;;23.6;13.25;;;;;;;-0.32;73.75;95756.67;;;;
2021/11/07 05:48:17;;;;;;;23.6;13.25;;;;;;;-0.32;73.75;95756.67;;;;
2021/11/07 05:49:18;;;;;;;23.6;13.25;;;;;;;-0.32;73.75;95756.67;;;;
2021/11/07 05:50:19;;;;;;;23.6;13.25;;;;;;;-0.32;73.75;95756.67;;;;
2021/11/07 05:51:22;;;;;;;23.6;13.25;;;;;;;-0.32;73.75;95756.67;;;;
2021/11/07 05:52:23;;;;;;;23.6;13.25;;;;;;;-0.32;73.75;95756.67;;;;
2021/11/07 05:53:24;;;;;;;23.6;13.25;;;;;;;-0.32;73.75;95756.67;;;;
2021/11/07 05:54:24;;;;;;;23.6;13.25;;;;;;;-0.32;73.75;95756.67;;;;
2021/11/07 05:55:25;;;;;;;22.1;12.75;;;;;;;-0.45;73.83984;95778.41;;;;
2021/11/07 05:56:26;;;;;;;22.1;12.75;;;;;;;-0.45;73.83984;95778.41;;;;
2021/11/07 05:57:26;;;;;;;22.1;12.75;;;;;;;-0.45;73.83984;95778.41;;;;